sensor_id;sensor_type;location;lat;lon;timestamp;P1;durP1;ratioP1;P2;durP2;ratioP2
71368;SDS011;59175;53.214;5.728;2022-10-31T00:02:15;9.40;;;2.60;;
71368;SDS011;59175;53.214;5.728;2022-10-31T00:04:40;8.37;;;2.63;;
71368;SDS011;59175;53.214;5.728;2022-10-31T00:07:05;5.43;;;2.00;;
71368;SDS011;59175;53.214;5.728;2022-10-31T00:09:31;10.80;;;2.40;;
71368;SDS011;59175;53.214;5.728;2022-10-31T00:11:56;8.50;;;2.87;;
71368;SDS011;59175;53.214;5.728;2022-10-31T00:14:21;10.27;;;2.73;;
71368;SDS011;59175;53.214;5.728;2022-10-31T00:16:46;7.67;;;2.80;;
71368;SDS011;59175;53.214;5.728;2022-10-31T00:19:11;7.53;;;2.63;;
71368;SDS011;59175;53.214;5.728;2022-10-31T00:21:37;11.83;;;2.53;;
71368;SDS011;59175;53.214;5.728;2022-10-31T00:24:02;7.63;;;2.90;;
71368;SDS011;59175;53.214;5.728;2022-10-31T00:26:28;6.77;;;1.90;;
71368;SDS011;59175;53.214;5.728;2022-10-31T00:28:53;6.50;;;2.50;;
71368;SDS011;59175;53.214;5.728;2022-10-31T00:31:19;9.73;;;3.07;;
71368;SDS011;59175;53.214;5.728;2022-10-31T00:33:44;8.43;;;1.90;;
71368;SDS011;59175;53.214;5.728;2022-10-31T00:36:13;6.00;;;2.43;;
71368;SDS011;59175;53.214;5.728;2022-10-31T00:38:39;9.43;;;3.47;;
71368;SDS011;59175;53.214;5.728;2022-10-31T00:41:04;9.30;;;2.87;;
71368;SDS011;59175;53.214;5.728;2022-10-31T00:43:29;10.10;;;3.03;;
71368;SDS011;59175;53.214;5.728;2022-10-31T00:45:55;6.90;;;3.10;;
71368;SDS011;59175;53.214;5.728;2022-10-31T00:48:20;8.80;;;2.73;;
71368;SDS011;59175;53.214;5.728;2022-10-31T00:50:45;6.80;;;2.63;;
71368;SDS011;59175;53.214;5.728;2022-10-31T00:53:10;8.20;;;3.23;;
71368;SDS011;59175;53.214;5.728;2022-10-31T00:55:35;6.83;;;2.13;;
71368;SDS011;59175;53.214;5.728;2022-10-31T00:58:01;10.40;;;2.70;;
71368;SDS011;59175;53.214;5.728;2022-10-31T01:00:26;8.03;;;2.67;;
71368;SDS011;59175;53.214;5.728;2022-10-31T01:02:51;9.05;;;1.92;;
71368;SDS011;59175;53.214;5.728;2022-10-31T01:05:17;12.27;;;2.47;;
71368;SDS011;59175;53.214;5.728;2022-10-31T01:07:42;8.77;;;2.33;;
71368;SDS011;59175;53.214;5.728;2022-10-31T01:10:08;8.87;;;2.37;;
71368;SDS011;59175;53.214;5.728;2022-10-31T01:12:40;6.15;;;2.63;;
71368;SDS011;59175;53.214;5.728;2022-10-31T01:15:05;7.97;;;2.27;;
71368;SDS011;59175;53.214;5.728;2022-10-31T01:17:31;7.60;;;2.63;;
71368;SDS011;59175;53.214;5.728;2022-10-31T01:19:56;7.93;;;1.90;;
71368;SDS011;59175;53.214;5.728;2022-10-31T01:22:21;8.00;;;1.60;;
71368;SDS011;59175;53.214;5.728;2022-10-31T01:24:46;10.07;;;1.93;;
71368;SDS011;59175;53.214;5.728;2022-10-31T01:27:12;7.17;;;2.47;;
71368;SDS011;59175;53.214;5.728;2022-10-31T01:29:37;19.10;;;2.50;;
71368;SDS011;59175;53.214;5.728;2022-10-31T01:32:02;6.07;;;2.50;;
71368;SDS011;59175;53.214;5.728;2022-10-31T01:34:27;20.27;;;2.87;;
71368;SDS011;59175;53.214;5.728;2022-10-31T01:36:53;10.77;;;3.30;;
71368;SDS011;59175;53.214;5.728;2022-10-31T01:39:18;7.83;;;2.43;;
71368;SDS011;59175;53.214;5.728;2022-10-31T01:41:45;14.48;;;2.22;;
71368;SDS011;59175;53.214;5.728;2022-10-31T01:46:43;8.93;;;2.13;;
71368;SDS011;59175;53.214;5.728;2022-10-31T01:52:02;8.05;;;2.30;;
71368;SDS011;59175;53.214;5.728;2022-10-31T01:54:30;9.50;;;3.13;;
71368;SDS011;59175;53.214;5.728;2022-10-31T01:56:56;7.60;;;3.13;;
71368;SDS011;59175;53.214;5.728;2022-10-31T01:59:22;9.07;;;2.87;;
71368;SDS011;59175;53.214;5.728;2022-10-31T02:01:48;9.20;;;3.40;;
71368;SDS011;59175;53.214;5.728;2022-10-31T02:04:15;13.43;;;2.47;;
71368;SDS011;59175;53.214;5.728;2022-10-31T02:09:12;13.10;;;3.25;;
71368;SDS011;59175;53.214;5.728;2022-10-31T02:11:37;8.57;;;2.60;;
71368;SDS011;59175;53.214;5.728;2022-10-31T02:14:03;8.50;;;2.73;;
71368;SDS011;59175;53.214;5.728;2022-10-31T02:16:28;7.75;;;2.65;;
71368;SDS011;59175;53.214;5.728;2022-10-31T02:18:53;11.82;;;3.65;;
71368;SDS011;59175;53.214;5.728;2022-10-31T02:21:22;9.10;;;3.17;;
71368;SDS011;59175;53.214;5.728;2022-10-31T02:26:38;9.23;;;3.97;;
71368;SDS011;59175;53.214;5.728;2022-10-31T02:31:54;14.70;;;5.07;;
71368;SDS011;59175;53.214;5.728;2022-10-31T02:34:22;11.00;;;4.35;;
71368;SDS011;59175;53.214;5.728;2022-10-31T02:39:23;8.68;;;3.55;;
71368;SDS011;59175;53.214;5.728;2022-10-31T02:41:55;8.27;;;3.57;;
71368;SDS011;59175;53.214;5.728;2022-10-31T02:44:24;8.23;;;3.47;;
71368;SDS011;59175;53.214;5.728;2022-10-31T02:46:53;15.65;;;4.32;;
71368;SDS011;59175;53.214;5.728;2022-10-31T02:51:51;11.95;;;3.15;;
71368;SDS011;59175;53.214;5.728;2022-10-31T02:54:18;10.37;;;3.27;;
71368;SDS011;59175;53.214;5.728;2022-10-31T02:56:43;12.35;;;4.55;;
71368;SDS011;59175;53.214;5.728;2022-10-31T02:59:08;11.60;;;4.43;;
71368;SDS011;59175;53.214;5.728;2022-10-31T03:04:16;12.50;;;4.80;;
71368;SDS011;59175;53.214;5.728;2022-10-31T03:06:57;9.93;;;3.88;;
71368;SDS011;59175;53.214;5.728;2022-10-31T03:12:19;12.52;;;2.72;;
71368;SDS011;59175;53.214;5.728;2022-10-31T03:14:56;11.15;;;3.47;;
71368;SDS011;59175;53.214;5.728;2022-10-31T03:17:29;11.50;;;3.13;;
71368;SDS011;59175;53.214;5.728;2022-10-31T03:19:57;12.55;;;3.90;;
71368;SDS011;59175;53.214;5.728;2022-10-31T03:22:23;11.15;;;4.00;;
71368;SDS011;59175;53.214;5.728;2022-10-31T03:24:49;13.68;;;4.20;;
71368;SDS011;59175;53.214;5.728;2022-10-31T03:27:15;10.07;;;4.17;;
71368;SDS011;59175;53.214;5.728;2022-10-31T03:29:42;9.40;;;3.92;;
71368;SDS011;59175;53.214;5.728;2022-10-31T03:32:10;11.48;;;4.03;;
71368;SDS011;59175;53.214;5.728;2022-10-31T03:34:37;14.90;;;3.27;;
71368;SDS011;59175;53.214;5.728;2022-10-31T03:37:06;9.52;;;3.85;;
71368;SDS011;59175;53.214;5.728;2022-10-31T03:39:32;13.73;;;3.78;;
71368;SDS011;59175;53.214;5.728;2022-10-31T03:44:29;9.55;;;3.22;;
71368;SDS011;59175;53.214;5.728;2022-10-31T03:46:55;11.83;;;3.80;;
71368;SDS011;59175;53.214;5.728;2022-10-31T03:49:21;9.15;;;3.35;;
71368;SDS011;59175;53.214;5.728;2022-10-31T03:51:54;10.83;;;3.53;;
71368;SDS011;59175;53.214;5.728;2022-10-31T03:54:40;13.50;;;3.80;;
71368;SDS011;59175;53.214;5.728;2022-10-31T03:57:08;12.30;;;3.38;;
71368;SDS011;59175;53.214;5.728;2022-10-31T03:59:41;9.23;;;4.45;;
71368;SDS011;59175;53.214;5.728;2022-10-31T04:02:10;9.43;;;4.10;;
71368;SDS011;59175;53.214;5.728;2022-10-31T04:04:36;9.02;;;3.13;;
71368;SDS011;59175;53.214;5.728;2022-10-31T04:07:02;8.67;;;3.63;;
71368;SDS011;59175;53.214;5.728;2022-10-31T04:09:28;7.78;;;3.25;;
71368;SDS011;59175;53.214;5.728;2022-10-31T04:11:56;9.93;;;3.60;;
71368;SDS011;59175;53.214;5.728;2022-10-31T04:14:23;10.13;;;3.17;;
71368;SDS011;59175;53.214;5.728;2022-10-31T04:16:49;11.73;;;3.65;;
71368;SDS011;59175;53.214;5.728;2022-10-31T04:19:14;10.50;;;3.53;;
71368;SDS011;59175;53.214;5.728;2022-10-31T04:21:43;8.20;;;3.17;;
71368;SDS011;59175;53.214;5.728;2022-10-31T04:24:11;8.65;;;3.67;;
71368;SDS011;59175;53.214;5.728;2022-10-31T04:26:36;12.50;;;3.77;;
71368;SDS011;59175;53.214;5.728;2022-10-31T04:29:01;8.75;;;3.08;;
71368;SDS011;59175;53.214;5.728;2022-10-31T04:31:27;12.07;;;4.33;;
71368;SDS011;59175;53.214;5.728;2022-10-31T04:33:52;8.63;;;3.43;;
71368;SDS011;59175;53.214;5.728;2022-10-31T04:36:17;13.20;;;3.77;;
71368;SDS011;59175;53.214;5.728;2022-10-31T04:38:42;10.70;;;4.00;;
71368;SDS011;59175;53.214;5.728;2022-10-31T04:41:07;8.73;;;2.63;;
71368;SDS011;59175;53.214;5.728;2022-10-31T04:43:33;16.47;;;2.67;;
71368;SDS011;59175;53.214;5.728;2022-10-31T04:45:58;8.97;;;3.50;;
71368;SDS011;59175;53.214;5.728;2022-10-31T04:48:23;8.50;;;2.93;;
71368;SDS011;59175;53.214;5.728;2022-10-31T04:50:48;9.53;;;3.83;;
71368;SDS011;59175;53.214;5.728;2022-10-31T04:53:13;8.90;;;3.17;;
71368;SDS011;59175;53.214;5.728;2022-10-31T04:55:39;9.67;;;2.70;;
71368;SDS011;59175;53.214;5.728;2022-10-31T04:58:04;9.80;;;3.53;;
71368;SDS011;59175;53.214;5.728;2022-10-31T05:00:29;8.57;;;2.23;;
71368;SDS011;59175;53.214;5.728;2022-10-31T05:02:55;11.30;;;3.07;;
71368;SDS011;59175;53.214;5.728;2022-10-31T05:05:21;8.67;;;2.87;;
71368;SDS011;59175;53.214;5.728;2022-10-31T05:07:48;9.02;;;3.00;;
71368;SDS011;59175;53.214;5.728;2022-10-31T05:10:14;9.30;;;3.00;;
71368;SDS011;59175;53.214;5.728;2022-10-31T05:12:46;8.83;;;3.17;;
71368;SDS011;59175;53.214;5.728;2022-10-31T05:15:12;7.60;;;3.05;;
71368;SDS011;59175;53.214;5.728;2022-10-31T05:17:38;8.67;;;3.40;;
71368;SDS011;59175;53.214;5.728;2022-10-31T05:20:03;7.88;;;3.35;;
71368;SDS011;59175;53.214;5.728;2022-10-31T05:22:28;10.13;;;3.00;;
71368;SDS011;59175;53.214;5.728;2022-10-31T05:24:54;11.17;;;2.93;;
71368;SDS011;59175;53.214;5.728;2022-10-31T05:27:19;11.20;;;3.27;;
71368;SDS011;59175;53.214;5.728;2022-10-31T05:29:44;12.20;;;2.80;;
71368;SDS011;59175;53.214;5.728;2022-10-31T05:32:09;9.43;;;3.20;;
71368;SDS011;59175;53.214;5.728;2022-10-31T05:34:34;10.07;;;2.90;;
71368;SDS011;59175;53.214;5.728;2022-10-31T05:37:00;8.93;;;3.87;;
71368;SDS011;59175;53.214;5.728;2022-10-31T05:39:25;8.27;;;4.30;;
71368;SDS011;59175;53.214;5.728;2022-10-31T05:41:50;11.10;;;4.07;;
71368;SDS011;59175;53.214;5.728;2022-10-31T05:44:15;9.93;;;4.70;;
71368;SDS011;59175;53.214;5.728;2022-10-31T05:46:40;8.60;;;3.80;;
71368;SDS011;59175;53.214;5.728;2022-10-31T05:49:06;8.57;;;3.17;;
71368;SDS011;59175;53.214;5.728;2022-10-31T05:51:31;7.30;;;3.23;;
71368;SDS011;59175;53.214;5.728;2022-10-31T05:53:56;9.73;;;3.50;;
71368;SDS011;59175;53.214;5.728;2022-10-31T05:56:21;8.17;;;3.17;;
71368;SDS011;59175;53.214;5.728;2022-10-31T05:58:46;12.23;;;3.00;;
71368;SDS011;59175;53.214;5.728;2022-10-31T06:01:12;7.77;;;3.27;;
71368;SDS011;59175;53.214;5.728;2022-10-31T06:03:37;12.30;;;3.40;;
71368;SDS011;59175;53.214;5.728;2022-10-31T06:06:02;8.17;;;3.37;;
71368;SDS011;59175;53.214;5.728;2022-10-31T06:08:27;8.53;;;2.27;;
71368;SDS011;59175;53.214;5.728;2022-10-31T06:10:53;7.47;;;2.20;;
71368;SDS011;59175;53.214;5.728;2022-10-31T06:13:18;14.43;;;3.20;;
71368;SDS011;59175;53.214;5.728;2022-10-31T06:15:44;9.57;;;3.20;;
71368;SDS011;59175;53.214;5.728;2022-10-31T06:18:09;6.17;;;2.47;;
71368;SDS011;59175;53.214;5.728;2022-10-31T06:20:34;6.60;;;2.37;;
71368;SDS011;59175;53.214;5.728;2022-10-31T06:22:59;12.10;;;3.20;;
71368;SDS011;59175;53.214;5.728;2022-10-31T06:25:25;9.18;;;2.90;;
71368;SDS011;59175;53.214;5.728;2022-10-31T06:27:50;8.02;;;4.22;;
71368;SDS011;59175;53.214;5.728;2022-10-31T06:30:15;10.00;;;3.97;;
71368;SDS011;59175;53.214;5.728;2022-10-31T06:32:40;12.27;;;4.03;;
71368;SDS011;59175;53.214;5.728;2022-10-31T06:35:06;10.87;;;3.47;;
71368;SDS011;59175;53.214;5.728;2022-10-31T06:37:31;7.40;;;3.20;;
71368;SDS011;59175;53.214;5.728;2022-10-31T06:39:56;11.43;;;3.13;;
71368;SDS011;59175;53.214;5.728;2022-10-31T06:42:21;15.70;;;3.23;;
71368;SDS011;59175;53.214;5.728;2022-10-31T06:44:46;9.20;;;4.40;;
71368;SDS011;59175;53.214;5.728;2022-10-31T06:47:12;7.93;;;3.87;;
71368;SDS011;59175;53.214;5.728;2022-10-31T06:49:37;8.07;;;2.90;;
71368;SDS011;59175;53.214;5.728;2022-10-31T06:52:02;12.23;;;4.07;;
71368;SDS011;59175;53.214;5.728;2022-10-31T06:54:27;9.77;;;3.33;;
71368;SDS011;59175;53.214;5.728;2022-10-31T06:56:53;9.67;;;3.73;;
71368;SDS011;59175;53.214;5.728;2022-10-31T06:59:18;11.80;;;5.07;;
71368;SDS011;59175;53.214;5.728;2022-10-31T07:01:43;13.60;;;3.23;;
71368;SDS011;59175;53.214;5.728;2022-10-31T07:04:09;13.13;;;4.00;;
71368;SDS011;59175;53.214;5.728;2022-10-31T07:06:34;8.70;;;3.47;;
71368;SDS011;59175;53.214;5.728;2022-10-31T07:08:59;8.43;;;3.53;;
71368;SDS011;59175;53.214;5.728;2022-10-31T07:11:24;10.07;;;3.77;;
71368;SDS011;59175;53.214;5.728;2022-10-31T07:13:50;11.90;;;4.17;;
71368;SDS011;59175;53.214;5.728;2022-10-31T07:16:15;7.70;;;3.10;;
71368;SDS011;59175;53.214;5.728;2022-10-31T07:18:40;8.70;;;3.80;;
71368;SDS011;59175;53.214;5.728;2022-10-31T07:21:05;13.68;;;4.85;;
71368;SDS011;59175;53.214;5.728;2022-10-31T07:23:31;19.83;;;3.92;;
71368;SDS011;59175;53.214;5.728;2022-10-31T07:25:56;10.57;;;3.57;;
71368;SDS011;59175;53.214;5.728;2022-10-31T07:28:22;11.45;;;4.28;;
71368;SDS011;59175;53.214;5.728;2022-10-31T07:30:51;8.23;;;4.38;;
71368;SDS011;59175;53.214;5.728;2022-10-31T07:33:16;14.43;;;3.97;;
71368;SDS011;59175;53.214;5.728;2022-10-31T07:35:42;12.13;;;5.23;;
71368;SDS011;59175;53.214;5.728;2022-10-31T07:38:08;11.20;;;4.57;;
71368;SDS011;59175;53.214;5.728;2022-10-31T07:40:33;10.45;;;4.13;;
71368;SDS011;59175;53.214;5.728;2022-10-31T07:42:59;8.57;;;4.10;;
71368;SDS011;59175;53.214;5.728;2022-10-31T07:45:24;12.13;;;4.63;;
71368;SDS011;59175;53.214;5.728;2022-10-31T07:47:50;9.57;;;4.33;;
71368;SDS011;59175;53.214;5.728;2022-10-31T07:50:16;12.00;;;5.53;;
71368;SDS011;59175;53.214;5.728;2022-10-31T07:52:42;19.17;;;5.40;;
71368;SDS011;59175;53.214;5.728;2022-10-31T07:55:07;14.50;;;4.53;;
71368;SDS011;59175;53.214;5.728;2022-10-31T07:57:33;10.70;;;4.68;;
71368;SDS011;59175;53.214;5.728;2022-10-31T07:59:58;11.40;;;4.30;;
71368;SDS011;59175;53.214;5.728;2022-10-31T08:02:23;11.37;;;5.27;;
71368;SDS011;59175;53.214;5.728;2022-10-31T08:04:49;12.30;;;4.27;;
71368;SDS011;59175;53.214;5.728;2022-10-31T08:07:14;11.43;;;5.10;;
71368;SDS011;59175;53.214;5.728;2022-10-31T08:09:39;10.93;;;4.50;;
71368;SDS011;59175;53.214;5.728;2022-10-31T08:12:05;13.63;;;5.07;;
71368;SDS011;59175;53.214;5.728;2022-10-31T08:14:30;10.73;;;4.10;;
71368;SDS011;59175;53.214;5.728;2022-10-31T08:16:55;12.47;;;6.03;;
71368;SDS011;59175;53.214;5.728;2022-10-31T08:19:20;13.73;;;5.93;;
71368;SDS011;59175;53.214;5.728;2022-10-31T08:21:46;9.17;;;3.83;;
71368;SDS011;59175;53.214;5.728;2022-10-31T08:24:11;12.43;;;4.80;;
71368;SDS011;59175;53.214;5.728;2022-10-31T08:26:36;9.27;;;4.27;;
71368;SDS011;59175;53.214;5.728;2022-10-31T08:29:02;14.87;;;5.87;;
71368;SDS011;59175;53.214;5.728;2022-10-31T08:31:27;12.98;;;5.32;;
71368;SDS011;59175;53.214;5.728;2022-10-31T08:33:53;10.53;;;5.90;;
71368;SDS011;59175;53.214;5.728;2022-10-31T08:36:19;17.75;;;5.78;;
71368;SDS011;59175;53.214;5.728;2022-10-31T08:38:44;16.43;;;5.67;;
71368;SDS011;59175;53.214;5.728;2022-10-31T08:41:09;11.00;;;5.13;;
71368;SDS011;59175;53.214;5.728;2022-10-31T08:43:34;11.97;;;5.17;;
71368;SDS011;59175;53.214;5.728;2022-10-31T08:45:59;16.53;;;6.30;;
71368;SDS011;59175;53.214;5.728;2022-10-31T08:48:25;14.47;;;5.20;;
71368;SDS011;59175;53.214;5.728;2022-10-31T08:50:50;15.33;;;5.30;;
71368;SDS011;59175;53.214;5.728;2022-10-31T08:53:16;13.87;;;5.27;;
71368;SDS011;59175;53.214;5.728;2022-10-31T08:55:42;13.07;;;6.07;;
71368;SDS011;59175;53.214;5.728;2022-10-31T08:58:12;12.85;;;5.53;;
71368;SDS011;59175;53.214;5.728;2022-10-31T09:00:37;14.23;;;5.90;;
71368;SDS011;59175;53.214;5.728;2022-10-31T09:03:03;11.60;;;5.80;;
71368;SDS011;59175;53.214;5.728;2022-10-31T09:05:29;13.95;;;6.47;;
71368;SDS011;59175;53.214;5.728;2022-10-31T09:07:55;12.17;;;4.77;;
71368;SDS011;59175;53.214;5.728;2022-10-31T09:10:20;12.20;;;4.70;;
71368;SDS011;59175;53.214;5.728;2022-10-31T09:12:45;16.67;;;5.90;;
71368;SDS011;59175;53.214;5.728;2022-10-31T09:15:10;13.13;;;5.03;;
71368;SDS011;59175;53.214;5.728;2022-10-31T09:17:36;16.13;;;6.20;;
71368;SDS011;59175;53.214;5.728;2022-10-31T09:20:01;14.33;;;5.80;;
71368;SDS011;59175;53.214;5.728;2022-10-31T09:22:26;16.63;;;6.03;;
71368;SDS011;59175;53.214;5.728;2022-10-31T09:24:51;13.40;;;5.10;;
71368;SDS011;59175;53.214;5.728;2022-10-31T09:27:16;10.47;;;4.20;;
71368;SDS011;59175;53.214;5.728;2022-10-31T09:29:42;13.47;;;5.47;;
71368;SDS011;59175;53.214;5.728;2022-10-31T09:32:07;13.73;;;4.40;;
71368;SDS011;59175;53.214;5.728;2022-10-31T09:34:32;15.00;;;4.33;;
71368;SDS011;59175;53.214;5.728;2022-10-31T09:36:57;10.43;;;4.83;;
71368;SDS011;59175;53.214;5.728;2022-10-31T09:39:22;11.47;;;5.13;;
71368;SDS011;59175;53.214;5.728;2022-10-31T09:46:54;11.35;;;4.70;;
71368;SDS011;59175;53.214;5.728;2022-10-31T09:49:36;11.95;;;3.78;;
71368;SDS011;59175;53.214;5.728;2022-10-31T09:52:04;11.10;;;3.70;;
71368;SDS011;59175;53.214;5.728;2022-10-31T09:56:58;12.20;;;4.30;;
71368;SDS011;59175;53.214;5.728;2022-10-31T09:59:29;13.80;;;5.05;;
71368;SDS011;59175;53.214;5.728;2022-10-31T10:01:56;12.77;;;4.32;;
71368;SDS011;59175;53.214;5.728;2022-10-31T10:07:01;14.37;;;4.23;;
71368;SDS011;59175;53.214;5.728;2022-10-31T10:09:27;14.02;;;5.78;;
71368;SDS011;59175;53.214;5.728;2022-10-31T10:14:31;14.33;;;5.93;;
71368;SDS011;59175;53.214;5.728;2022-10-31T10:19:50;11.77;;;5.18;;
71368;SDS011;59175;53.214;5.728;2022-10-31T10:27:46;15.55;;;5.72;;
71368;SDS011;59175;53.214;5.728;2022-10-31T10:30:14;13.45;;;5.93;;
71368;SDS011;59175;53.214;5.728;2022-10-31T10:32:52;16.83;;;6.00;;
71368;SDS011;59175;53.214;5.728;2022-10-31T10:37:45;11.93;;;5.23;;
71368;SDS011;59175;53.214;5.728;2022-10-31T10:40:16;16.83;;;6.17;;
71368;SDS011;59175;53.214;5.728;2022-10-31T10:42:42;15.32;;;5.75;;
71368;SDS011;59175;53.214;5.728;2022-10-31T10:45:28;12.40;;;4.78;;
71368;SDS011;59175;53.214;5.728;2022-10-31T10:48:14;12.15;;;4.93;;
71368;SDS011;59175;53.214;5.728;2022-10-31T10:50:41;12.45;;;4.40;;
71368;SDS011;59175;53.214;5.728;2022-10-31T10:58:17;9.60;;;4.88;;
71368;SDS011;59175;53.214;5.728;2022-10-31T11:00:43;17.67;;;6.20;;
71368;SDS011;59175;53.214;5.728;2022-10-31T11:03:11;14.85;;;4.57;;
71368;SDS011;59175;53.214;5.728;2022-10-31T11:05:37;11.20;;;4.77;;
71368;SDS011;59175;53.214;5.728;2022-10-31T11:08:04;13.23;;;5.40;;
71368;SDS011;59175;53.214;5.728;2022-10-31T11:10:29;12.15;;;5.75;;
71368;SDS011;59175;53.214;5.728;2022-10-31T11:13:00;8.97;;;4.10;;
71368;SDS011;59175;53.214;5.728;2022-10-31T11:15:26;15.52;;;4.45;;
71368;SDS011;59175;53.214;5.728;2022-10-31T11:17:52;11.23;;;4.22;;
71368;SDS011;59175;53.214;5.728;2022-10-31T11:22:45;12.50;;;4.90;;
71368;SDS011;59175;53.214;5.728;2022-10-31T11:27:45;10.07;;;4.35;;
71368;SDS011;59175;53.214;5.728;2022-10-31T11:30:11;8.13;;;3.13;;
71368;SDS011;59175;53.214;5.728;2022-10-31T11:32:37;8.88;;;3.42;;
71368;SDS011;59175;53.214;5.728;2022-10-31T11:35:09;13.65;;;4.50;;
71368;SDS011;59175;53.214;5.728;2022-10-31T11:37:35;12.13;;;4.93;;
71368;SDS011;59175;53.214;5.728;2022-10-31T11:40:06;14.20;;;4.35;;
71368;SDS011;59175;53.214;5.728;2022-10-31T11:42:36;12.77;;;3.70;;
71368;SDS011;59175;53.214;5.728;2022-10-31T11:45:05;9.77;;;3.78;;
71368;SDS011;59175;53.214;5.728;2022-10-31T11:47:31;11.75;;;3.85;;
71368;SDS011;59175;53.214;5.728;2022-10-31T11:49:57;12.60;;;2.93;;
71368;SDS011;59175;53.214;5.728;2022-10-31T11:52:27;18.13;;;4.35;;
71368;SDS011;59175;53.214;5.728;2022-10-31T11:54:54;10.85;;;3.92;;
71368;SDS011;59175;53.214;5.728;2022-10-31T11:57:21;9.70;;;4.17;;
71368;SDS011;59175;53.214;5.728;2022-10-31T11:59:50;12.50;;;4.00;;
71368;SDS011;59175;53.214;5.728;2022-10-31T12:02:18;11.00;;;3.58;;
71368;SDS011;59175;53.214;5.728;2022-10-31T12:04:44;12.63;;;4.03;;
71368;SDS011;59175;53.214;5.728;2022-10-31T12:07:11;8.65;;;3.10;;
71368;SDS011;59175;53.214;5.728;2022-10-31T12:09:36;11.60;;;3.53;;
71368;SDS011;59175;53.214;5.728;2022-10-31T12:14:55;9.70;;;2.93;;
71368;SDS011;59175;53.214;5.728;2022-10-31T12:22:36;11.35;;;4.38;;
71368;SDS011;59175;53.214;5.728;2022-10-31T12:30:01;14.23;;;4.67;;
71368;SDS011;59175;53.214;5.728;2022-10-31T12:35:08;12.73;;;5.07;;
71368;SDS011;59175;53.214;5.728;2022-10-31T12:43:10;12.18;;;4.22;;
71368;SDS011;59175;53.214;5.728;2022-10-31T12:58:26;21.48;;;5.43;;
71368;SDS011;59175;53.214;5.728;2022-10-31T13:01:12;14.85;;;4.43;;
71368;SDS011;59175;53.214;5.728;2022-10-31T13:06:22;15.68;;;4.90;;
71368;SDS011;59175;53.214;5.728;2022-10-31T13:08:57;13.20;;;4.10;;
71368;SDS011;59175;53.214;5.728;2022-10-31T13:11:28;7.60;;;3.53;;
71368;SDS011;59175;53.214;5.728;2022-10-31T13:16:30;13.97;;;3.90;;
71368;SDS011;59175;53.214;5.728;2022-10-31T13:19:00;13.32;;;3.83;;
71368;SDS011;59175;53.214;5.728;2022-10-31T13:21:30;10.80;;;2.95;;
71368;SDS011;59175;53.214;5.728;2022-10-31T13:23:56;12.80;;;2.53;;
71368;SDS011;59175;53.214;5.728;2022-10-31T13:31:41;8.23;;;1.55;;
71368;SDS011;59175;53.214;5.728;2022-10-31T13:34:14;9.90;;;2.03;;
71368;SDS011;59175;53.214;5.728;2022-10-31T13:41:40;4.70;;;1.30;;
71368;SDS011;59175;53.214;5.728;2022-10-31T13:44:17;6.82;;;1.33;;
71368;SDS011;59175;53.214;5.728;2022-10-31T13:46:43;5.97;;;1.92;;
71368;SDS011;59175;53.214;5.728;2022-10-31T13:51:49;8.02;;;1.33;;
71368;SDS011;59175;53.214;5.728;2022-10-31T13:54:21;7.10;;;1.17;;
71368;SDS011;59175;53.214;5.728;2022-10-31T13:56:50;7.90;;;1.40;;
71368;SDS011;59175;53.214;5.728;2022-10-31T13:59:21;6.47;;;1.70;;
71368;SDS011;59175;53.214;5.728;2022-10-31T14:04:36;6.05;;;1.33;;
71368;SDS011;59175;53.214;5.728;2022-10-31T14:07:06;2.78;;;0.50;;
71368;SDS011;59175;53.214;5.728;2022-10-31T14:09:36;4.20;;;0.90;;
71368;SDS011;59175;53.214;5.728;2022-10-31T14:12:04;6.03;;;1.07;;
71368;SDS011;59175;53.214;5.728;2022-10-31T14:14:32;9.32;;;1.35;;
71368;SDS011;59175;53.214;5.728;2022-10-31T14:16:59;5.15;;;1.20;;
71368;SDS011;59175;53.214;5.728;2022-10-31T14:19:24;4.70;;;1.00;;
71368;SDS011;59175;53.214;5.728;2022-10-31T14:21:50;3.20;;;0.83;;
71368;SDS011;59175;53.214;5.728;2022-10-31T14:26:51;6.80;;;1.30;;
71368;SDS011;59175;53.214;5.728;2022-10-31T14:31:42;6.53;;;1.30;;
71368;SDS011;59175;53.214;5.728;2022-10-31T14:39:04;6.80;;;1.70;;
71368;SDS011;59175;53.214;5.728;2022-10-31T14:41:39;11.38;;;1.45;;
71368;SDS011;59175;53.214;5.728;2022-10-31T14:46:54;5.13;;;1.33;;
71368;SDS011;59175;53.214;5.728;2022-10-31T14:52:00;6.80;;;1.33;;
71368;SDS011;59175;53.214;5.728;2022-10-31T14:54:30;12.45;;;2.45;;
71368;SDS011;59175;53.214;5.728;2022-10-31T14:56:59;6.50;;;1.55;;
71368;SDS011;59175;53.214;5.728;2022-10-31T14:59:28;5.45;;;1.45;;
71368;SDS011;59175;53.214;5.728;2022-10-31T15:02:06;7.97;;;1.10;;
71368;SDS011;59175;53.214;5.728;2022-10-31T15:04:34;9.25;;;1.58;;
71368;SDS011;59175;53.214;5.728;2022-10-31T15:07:21;8.15;;;2.40;;
71368;SDS011;59175;53.214;5.728;2022-10-31T15:09:45;8.15;;;1.85;;
71368;SDS011;59175;53.214;5.728;2022-10-31T15:12:23;4.50;;;1.50;;
71368;SDS011;59175;53.214;5.728;2022-10-31T15:14:49;8.60;;;2.03;;
71368;SDS011;59175;53.214;5.728;2022-10-31T15:17:14;3.93;;;1.20;;
71368;SDS011;59175;53.214;5.728;2022-10-31T15:19:40;5.90;;;1.25;;
71368;SDS011;59175;53.214;5.728;2022-10-31T15:22:07;6.53;;;1.42;;
71368;SDS011;59175;53.214;5.728;2022-10-31T15:24:36;5.43;;;1.20;;
71368;SDS011;59175;53.214;5.728;2022-10-31T15:27:01;6.72;;;1.20;;
71368;SDS011;59175;53.214;5.728;2022-10-31T15:29:27;7.70;;;1.10;;
71368;SDS011;59175;53.214;5.728;2022-10-31T15:34:22;5.40;;;1.33;;
71368;SDS011;59175;53.214;5.728;2022-10-31T15:36:49;4.80;;;1.35;;
71368;SDS011;59175;53.214;5.728;2022-10-31T15:39:15;8.23;;;1.42;;
71368;SDS011;59175;53.214;5.728;2022-10-31T15:46:44;12.23;;;2.23;;
71368;SDS011;59175;53.214;5.728;2022-10-31T15:49:24;7.50;;;1.85;;
71368;SDS011;59175;53.214;5.728;2022-10-31T15:51:51;7.32;;;1.17;;
71368;SDS011;59175;53.214;5.728;2022-10-31T15:54:16;2.80;;;0.90;;
71368;SDS011;59175;53.214;5.728;2022-10-31T15:56:42;7.63;;;0.90;;
71368;SDS011;59175;53.214;5.728;2022-10-31T15:59:11;3.80;;;1.17;;
71368;SDS011;59175;53.214;5.728;2022-10-31T16:01:38;6.75;;;1.45;;
71368;SDS011;59175;53.214;5.728;2022-10-31T16:06:38;4.47;;;1.10;;
71368;SDS011;59175;53.214;5.728;2022-10-31T16:09:03;4.10;;;1.00;;
71368;SDS011;59175;53.214;5.728;2022-10-31T16:13:56;4.67;;;1.13;;
71368;SDS011;59175;53.214;5.728;2022-10-31T16:16:22;2.83;;;0.50;;
71368;SDS011;59175;53.214;5.728;2022-10-31T16:18:48;4.03;;;1.00;;
71368;SDS011;59175;53.214;5.728;2022-10-31T16:21:13;4.18;;;0.52;;
71368;SDS011;59175;53.214;5.728;2022-10-31T16:23:39;8.17;;;1.40;;
71368;SDS011;59175;53.214;5.728;2022-10-31T16:26:09;4.22;;;0.60;;
71368;SDS011;59175;53.214;5.728;2022-10-31T16:28:36;3.43;;;0.80;;
71368;SDS011;59175;53.214;5.728;2022-10-31T16:31:11;6.43;;;1.40;;
71368;SDS011;59175;53.214;5.728;2022-10-31T16:33:37;3.72;;;0.75;;
71368;SDS011;59175;53.214;5.728;2022-10-31T16:38:46;6.85;;;1.17;;
71368;SDS011;59175;53.214;5.728;2022-10-31T16:41:11;11.43;;;1.80;;
71368;SDS011;59175;53.214;5.728;2022-10-31T16:43:37;6.67;;;1.23;;
71368;SDS011;59175;53.214;5.728;2022-10-31T16:46:02;8.63;;;2.03;;
71368;SDS011;59175;53.214;5.728;2022-10-31T16:48:28;8.57;;;1.17;;
71368;SDS011;59175;53.214;5.728;2022-10-31T16:50:53;9.47;;;1.10;;
71368;SDS011;59175;53.214;5.728;2022-10-31T16:53:18;7.90;;;1.63;;
71368;SDS011;59175;53.214;5.728;2022-10-31T16:56:02;6.33;;;1.90;;
71368;SDS011;59175;53.214;5.728;2022-10-31T16:58:29;13.85;;;2.88;;
71368;SDS011;59175;53.214;5.728;2022-10-31T17:00:55;10.50;;;1.73;;
71368;SDS011;59175;53.214;5.728;2022-10-31T17:03:20;9.53;;;1.97;;
71368;SDS011;59175;53.214;5.728;2022-10-31T17:05:45;6.53;;;2.03;;